Portada
METAR-TAF:

METAR-TAF

Aeropuertos :

El Aaiún, Marruecos

Aeropuerto Internacional Hassan I

latitud: 27-10N, longitud: 013-12-59W, altitud: 6 m

Observación

El informe se hizo hace 10 minutos, a las 07:00 UTC
Viento 6 kt del norte-noreste
Temperatura 18°C
Humedad 94%
Presión 1018 hPa
Visibilidad: 8000 m
Escasas nubes a una altura de 2000 ft
Nubes dispersas a una altura de 10000 ft

METAR: GMML 150700Z 03006KT 8000 FEW020 SCT100 18/17 Q1018 NOSIG

Hora: 08:10 (07:10 UTC)

Pronóstico

El informe se hizo hace 2 horas y 10 minutos, a las 05:00 UTC
Pronóstico válido del 15 a las 06 UTC al 16 a las 12 UTC
Viento 12 kt del noreste
Visibilidad 10 km o más
sin nubes por debajo de 1500 m y sin presencia de cumulonimbus.

TAF: GMML 150500Z 1506/1612 04012KT CAVOK

Observaciones y pronósticos meteorológicos de más de 4000 aeropuertos (mensajes METAR y TAF).

Los puntos amarillos y rojos representan las estaciones disponibles.

Ponga el ratón en el punto deseado para ver el nombre de la estación.

Haga clic para ver las observaciones y los pronósticos meteorológicos.

Para cambiar el mapa : haga clic en los botones verdes con una cruz de color negro para hacer un zoom, en el botón verde con un guión para alejar o en las flechas verdes para mapas adyacentes.


METAR-TAF: